createdAt,value
2019-03-22T00:02:04.974Z,9.13
2019-03-22T00:04:33.864Z,9.17
2019-03-22T00:07:02.881Z,9.12
2019-03-22T00:09:31.802Z,9.11
2019-03-22T00:12:00.767Z,9.18
2019-03-22T00:14:29.690Z,9.25
2019-03-22T00:16:58.976Z,8.97
2019-03-22T00:19:27.845Z,8.93
2019-03-22T00:21:57.744Z,8.82
2019-03-22T00:24:26.739Z,8.84
2019-03-22T00:26:55.633Z,8.81
2019-03-22T00:29:25.022Z,9.05
2019-03-22T00:31:54.102Z,9.19
2019-03-22T00:34:23.199Z,9.14
2019-03-22T00:36:52.373Z,9.12
2019-03-22T00:39:21.423Z,8.87
2019-03-22T00:41:50.391Z,9.00
2019-03-22T00:44:19.371Z,9.04
2019-03-22T00:46:48.421Z,9.09
2019-03-22T00:49:17.450Z,9.20
2019-03-22T00:51:46.372Z,8.86
2019-03-22T00:54:15.314Z,8.66
2019-03-22T00:56:44.252Z,8.72
2019-03-22T00:59:13.388Z,8.97
2019-03-22T01:01:42.765Z,8.96
2019-03-22T01:04:11.754Z,9.07
2019-03-22T01:06:40.948Z,8.98
2019-03-22T01:09:10.306Z,8.93
2019-03-22T01:11:41.109Z,8.87
2019-03-22T01:14:10.045Z,8.98
2019-03-22T01:16:38.966Z,8.98
2019-03-22T01:19:08.688Z,8.97
2019-03-22T01:21:37.603Z,9.12
2019-03-22T01:24:06.645Z,9.07
2019-03-22T01:26:35.553Z,9.18
2019-03-22T01:29:05.527Z,9.25
2019-03-22T01:31:34.443Z,9.28
2019-03-22T01:34:03.465Z,9.42
2019-03-22T01:36:32.479Z,9.48
2019-03-22T01:39:01.331Z,9.52
2019-03-22T01:41:30.258Z,9.35
2019-03-22T01:43:59.138Z,9.38
2019-03-22T01:46:28.234Z,9.31
2019-03-22T01:48:57.184Z,9.35
2019-03-22T01:51:26.202Z,9.28
2019-03-22T01:53:55.593Z,9.31
2019-03-22T01:56:24.647Z,9.44
2019-03-22T01:58:53.528Z,9.16
2019-03-22T02:01:22.826Z,9.11
2019-03-22T02:03:52.089Z,9.33
2019-03-22T02:06:21.007Z,9.31
2019-03-22T02:08:50.583Z,9.31
2019-03-22T02:11:19.507Z,9.28
2019-03-22T02:13:48.455Z,9.10
2019-03-22T02:16:17.331Z,9.14
2019-03-22T02:18:46.530Z,9.30
2019-03-22T02:21:15.389Z,9.07
2019-03-22T02:23:44.484Z,9.10
2019-03-22T02:26:13.519Z,9.40
2019-03-22T02:28:42.841Z,9.46
2019-03-22T02:31:11.679Z,9.45
2019-03-22T02:33:40.607Z,9.28
2019-03-22T02:36:10.334Z,9.38
2019-03-22T02:38:39.403Z,9.42
2019-03-22T02:41:08.663Z,9.34
2019-03-22T02:43:37.642Z,9.40
2019-03-22T02:46:06.529Z,9.15
2019-03-22T02:48:35.766Z,9.18
2019-03-22T02:51:04.711Z,9.28
2019-03-22T02:53:33.755Z,9.37
2019-03-22T02:56:02.736Z,9.41
2019-03-22T02:58:32.348Z,9.08
2019-03-22T03:01:01.494Z,9.19
2019-03-22T03:03:30.559Z,9.13
2019-03-22T03:05:59.469Z,9.16
2019-03-22T03:08:28.407Z,9.22
2019-03-22T03:10:57.359Z,9.31
2019-03-22T03:13:26.362Z,9.41
2019-03-22T03:15:55.364Z,9.25
2019-03-22T03:18:24.496Z,9.31
2019-03-22T03:20:53.522Z,9.29
2019-03-22T03:23:22.809Z,9.29
2019-03-22T03:25:51.725Z,9.16
2019-03-22T03:28:35.641Z,9.10
2019-03-22T03:30:51.656Z,9.25
2019-03-22T03:33:20.637Z,9.28
2019-03-22T03:35:49.610Z,9.32
2019-03-22T03:38:18.483Z,9.45
2019-03-22T03:40:47.426Z,9.47
2019-03-22T03:43:16.323Z,9.36
2019-03-22T03:45:45.759Z,9.48
2019-03-22T03:48:14.677Z,9.24
2019-03-22T03:50:43.664Z,9.27
2019-03-22T03:53:12.684Z,9.41
2019-03-22T03:55:41.597Z,9.28
2019-03-22T03:58:10.567Z,9.13
2019-03-22T04:00:39.482Z,9.09
2019-03-22T04:03:08.787Z,9.16
2019-03-22T04:05:37.712Z,9.23
2019-03-22T04:08:06.644Z,9.31
2019-03-22T04:10:35.541Z,9.30
2019-03-22T04:13:04.649Z,9.22
2019-03-22T04:15:33.657Z,9.20
2019-03-22T04:18:02.638Z,9.13
2019-03-22T04:20:31.782Z,8.84
2019-03-22T04:23:00.981Z,8.75
2019-03-22T04:25:30.306Z,8.90
2019-03-22T04:27:59.718Z,8.86
2019-03-22T04:30:28.679Z,8.77
2019-03-22T04:32:58.505Z,8.71
2019-03-22T04:35:27.429Z,8.59
2019-03-22T04:37:56.371Z,8.59
2019-03-22T04:40:26.962Z,8.60
2019-03-22T04:42:56.125Z,8.66
2019-03-22T04:45:29.227Z,8.70
2019-03-22T04:48:13.665Z,8.59
2019-03-22T04:50:45.991Z,8.59
2019-03-22T04:53:21.884Z,8.60
2019-03-22T04:55:57.610Z,8.55
2019-03-22T04:58:28.741Z,8.65
2019-03-22T05:00:59.761Z,8.59
2019-03-22T05:03:31.144Z,8.66
2019-03-22T05:06:02.360Z,8.82
2019-03-22T05:08:37.290Z,8.60
2019-03-22T05:11:10.938Z,8.63
2019-03-22T05:13:44.403Z,8.62
2019-03-22T05:16:16.567Z,8.54
2019-03-22T05:18:49.913Z,8.62
2019-03-22T05:21:25.077Z,8.65
2019-03-22T05:24:00.806Z,8.68
2019-03-22T05:26:33.906Z,8.72
2019-03-22T05:29:05.127Z,8.74
2019-03-22T05:31:59.495Z,8.73
2019-03-22T05:34:28.798Z,8.72
2019-03-22T05:36:57.741Z,8.76
2019-03-22T05:39:26.649Z,8.65
2019-03-22T05:41:55.537Z,8.70
2019-03-22T05:44:24.499Z,8.81
2019-03-22T05:46:53.473Z,8.73
2019-03-22T05:49:22.431Z,8.71
2019-03-22T05:51:51.392Z,8.77
2019-03-22T05:54:20.325Z,8.74
2019-03-22T05:56:49.280Z,8.73
2019-03-22T05:59:18.304Z,8.73
2019-03-22T06:01:47.497Z,8.70
2019-03-22T06:04:16.422Z,8.75
2019-03-22T06:06:45.419Z,8.76
2019-03-22T06:09:14.784Z,8.68
2019-03-22T06:11:43.737Z,8.84
2019-03-22T06:14:12.645Z,8.96
2019-03-22T06:16:41.544Z,8.92
2019-03-22T06:19:10.470Z,8.90
2019-03-22T06:21:39.573Z,8.95
2019-03-22T06:24:08.875Z,8.89
2019-03-22T06:26:37.741Z,8.90
2019-03-22T06:29:06.607Z,8.80
2019-03-22T06:31:35.561Z,8.84
2019-03-22T06:34:04.608Z,8.95
2019-03-22T06:36:34.074Z,8.83
2019-03-22T06:39:05.184Z,8.64
2019-03-22T06:41:34.325Z,8.51
2019-03-22T06:44:04.537Z,8.45
2019-03-22T06:46:33.488Z,8.81
2019-03-22T06:49:03.339Z,8.84
2019-03-22T06:51:32.663Z,9.05
2019-03-22T06:54:01.557Z,9.17
2019-03-22T06:56:30.627Z,9.22
2019-03-22T06:59:01.155Z,9.22
2019-03-22T07:01:30.080Z,9.31
2019-03-22T07:03:59.052Z,9.50
2019-03-22T07:06:27.973Z,9.55
2019-03-22T07:08:56.829Z,9.20
2019-03-22T07:11:26.082Z,9.11
2019-03-22T07:13:55.099Z,9.38
2019-03-22T07:16:24.140Z,9.38
2019-03-22T07:18:53.116Z,9.68
2019-03-22T07:21:22.211Z,9.41
2019-03-22T07:23:51.213Z,9.33
2019-03-22T07:26:20.277Z,9.48
2019-03-22T07:28:49.185Z,9.46
2019-03-22T07:31:18.225Z,9.59
2019-03-22T07:33:47.201Z,9.55
2019-03-22T07:36:16.274Z,9.28
2019-03-22T07:38:45.161Z,9.76
2019-03-22T07:41:14.135Z,9.29
2019-03-22T07:43:43.052Z,9.61
2019-03-22T07:46:12.182Z,9.89
2019-03-22T07:48:41.299Z,10.17
2019-03-22T07:51:10.235Z,10.24
2019-03-22T07:53:39.190Z,10.52
2019-03-22T07:56:08.219Z,10.67
2019-03-22T07:58:37.201Z,10.74
2019-03-22T08:01:06.244Z,10.98
2019-03-22T08:03:35.386Z,11.09
2019-03-22T08:06:04.703Z,10.91
2019-03-22T08:08:33.784Z,10.72
2019-03-22T08:11:03.155Z,10.97
2019-03-22T08:13:32.158Z,11.28
2019-03-22T08:16:01.198Z,11.57
2019-03-22T08:18:30.795Z,10.84
2019-03-22T08:20:59.958Z,11.27
2019-03-22T08:23:29.030Z,11.51
2019-03-22T08:25:57.983Z,11.87
2019-03-22T08:28:26.944Z,11.35
2019-03-22T08:30:55.934Z,11.31
2019-03-22T08:33:24.911Z,11.46
2019-03-22T08:35:53.839Z,11.45
2019-03-22T08:38:22.905Z,11.45
2019-03-22T08:40:51.860Z,11.86
2019-03-22T08:43:20.838Z,11.81
2019-03-22T08:45:49.977Z,11.66
2019-03-22T08:48:19.111Z,11.37
2019-03-22T08:50:48.562Z,11.62
2019-03-22T08:53:17.792Z,11.97
2019-03-22T08:55:47.059Z,11.75
2019-03-22T08:58:18.591Z,11.87
2019-03-22T09:00:57.517Z,12.61
2019-03-22T09:03:17.916Z,12.86
2019-03-22T09:05:46.891Z,12.36
2019-03-22T09:08:16.181Z,12.68
2019-03-22T09:10:45.334Z,12.10
2019-03-22T09:13:14.223Z,12.33
2019-03-22T09:15:43.271Z,12.81
2019-03-22T09:18:14.188Z,12.54
2019-03-22T09:20:43.071Z,13.12
2019-03-22T09:23:12.059Z,12.99
2019-03-22T09:25:41.182Z,12.97
2019-03-22T09:28:10.559Z,13.26
2019-03-22T09:30:39.746Z,12.77
2019-03-22T09:33:08.938Z,12.96
2019-03-22T09:35:38.171Z,13.06
2019-03-22T09:38:13.241Z,13.39
2019-03-22T09:40:38.851Z,13.20
2019-03-22T09:43:08.225Z,13.20
2019-03-22T09:45:37.381Z,13.20
2019-03-22T09:48:06.746Z,13.37
2019-03-22T09:50:35.770Z,13.60
2019-03-22T09:53:04.883Z,13.42
2019-03-22T09:55:33.763Z,13.57
2019-03-22T09:58:02.899Z,13.96
2019-03-22T10:00:33.619Z,14.11
2019-03-22T10:03:04.923Z,13.89
2019-03-22T10:05:33.925Z,14.15
2019-03-22T10:08:04.730Z,14.32
2019-03-22T10:10:34.517Z,13.96
2019-03-22T10:13:03.766Z,13.95
2019-03-22T10:15:34.123Z,14.22
2019-03-22T10:18:03.835Z,14.20
2019-03-22T10:20:32.920Z,14.34
2019-03-22T10:23:02.632Z,14.70
2019-03-22T10:25:31.571Z,14.12
2019-03-22T10:28:00.462Z,14.55
2019-03-22T10:30:29.985Z,14.32
2019-03-22T10:32:58.970Z,14.43
2019-03-22T10:35:29.406Z,14.81
2019-03-22T10:38:00.881Z,14.65
2019-03-22T10:40:29.602Z,14.70
2019-03-22T10:42:58.622Z,14.93
2019-03-22T10:45:27.938Z,14.95
2019-03-22T10:47:56.823Z,14.47
2019-03-22T10:50:25.719Z,14.75
2019-03-22T10:52:56.113Z,14.92
2019-03-22T10:55:30.218Z,15.03
2019-03-22T10:57:55.974Z,15.16
2019-03-22T11:00:24.947Z,15.16
2019-03-22T11:02:54.282Z,15.23
2019-03-22T11:05:23.257Z,15.26
2019-03-22T11:07:52.201Z,15.05
2019-03-22T11:10:21.736Z,15.03
2019-03-22T11:12:51.351Z,15.06
2019-03-22T11:15:20.255Z,15.28
2019-03-22T11:17:49.314Z,15.35
2019-03-22T11:20:18.304Z,15.82
2019-03-22T11:22:47.245Z,15.72
2019-03-22T11:25:16.143Z,15.45
2019-03-22T11:27:45.089Z,15.62
2019-03-22T11:30:17.641Z,15.82
2019-03-22T11:32:47.792Z,15.97
2019-03-22T11:35:16.828Z,15.77
2019-03-22T11:37:46.058Z,15.77
2019-03-22T11:40:16.693Z,16.22
2019-03-22T11:42:45.546Z,16.14
2019-03-22T11:45:17.679Z,15.99
2019-03-22T11:47:46.905Z,16.30
2019-03-22T11:50:16.125Z,16.17
2019-03-22T11:52:45.072Z,16.35
2019-03-22T11:55:14.237Z,16.26
2019-03-22T11:57:43.115Z,16.38
2019-03-22T12:00:18.393Z,16.60
2019-03-22T12:02:49.138Z,16.73
2019-03-22T12:05:20.196Z,16.89
2019-03-22T12:07:49.584Z,16.99
2019-03-22T12:10:19.783Z,17.08
2019-03-22T12:12:49.143Z,17.01
2019-03-22T12:15:22.924Z,16.82
2019-03-22T12:17:51.918Z,17.11
2019-03-22T12:20:21.518Z,16.65
2019-03-22T12:22:50.716Z,16.57
2019-03-22T12:25:20.212Z,16.78
2019-03-22T12:27:49.100Z,16.56
2019-03-22T12:30:18.316Z,16.54
2019-03-22T12:32:47.362Z,16.88
2019-03-22T12:35:17.587Z,17.08
2019-03-22T12:37:46.591Z,16.86
2019-03-22T12:40:16.855Z,16.85
2019-03-22T12:42:45.834Z,17.38
2019-03-22T12:45:19.751Z,17.35
2019-03-22T12:47:49.050Z,17.50
2019-03-22T12:50:18.379Z,17.60
2019-03-22T12:52:47.343Z,17.58
2019-03-22T12:55:16.464Z,17.59
2019-03-22T12:57:46.113Z,17.56
2019-03-22T13:00:18.553Z,17.39
2019-03-22T13:02:47.761Z,17.64
2019-03-22T13:05:17.641Z,17.81
2019-03-22T13:07:46.857Z,18.05
2019-03-22T13:10:17.819Z,18.10
2019-03-22T13:12:46.809Z,18.19
2019-03-22T13:15:15.738Z,17.97
2019-03-22T13:17:44.847Z,18.07
2019-03-22T13:20:14.592Z,18.06
2019-03-22T13:22:43.683Z,18.22
2019-03-22T13:25:14.233Z,18.16
2019-03-22T13:27:44.818Z,18.02
2019-03-22T13:30:30.291Z,18.04
2019-03-22T13:32:59.296Z,18.06
2019-03-22T13:35:28.456Z,18.31
2019-03-22T13:37:57.370Z,18.46
2019-03-22T13:40:26.664Z,18.47
2019-03-22T13:42:55.591Z,18.48
2019-03-22T13:45:25.105Z,18.56
2019-03-22T13:47:54.034Z,18.42
2019-03-22T13:50:23.625Z,18.48
2019-03-22T13:52:52.528Z,18.69
2019-03-22T13:55:21.768Z,18.53
2019-03-22T13:57:50.677Z,18.41
2019-03-22T14:00:19.900Z,18.38
2019-03-22T14:02:50.020Z,18.59
2019-03-22T14:05:18.942Z,18.30
2019-03-22T14:07:48.970Z,17.96
2019-03-22T14:10:31.148Z,18.41
2019-03-22T14:13:01.272Z,18.23
2019-03-22T14:15:30.233Z,18.60
2019-03-22T14:17:59.174Z,18.28
2019-03-22T14:20:28.487Z,18.33
2019-03-22T14:22:57.611Z,18.61
2019-03-22T14:25:26.780Z,18.60
2019-03-22T14:27:55.744Z,18.57
2019-03-22T14:30:24.717Z,18.23
2019-03-22T14:32:54.167Z,18.52
2019-03-22T14:35:23.054Z,18.55
2019-03-22T14:37:51.952Z,18.60
2019-03-22T14:40:20.928Z,18.65
2019-03-22T14:42:50.121Z,18.65
2019-03-22T14:45:19.145Z,18.20
2019-03-22T14:47:48.426Z,18.55
2019-03-22T14:50:17.500Z,18.39
2019-03-22T14:52:46.391Z,18.30
2019-03-22T14:55:15.474Z,18.51
2019-03-22T14:57:49.250Z,18.69
2019-03-22T15:00:15.211Z,18.43
2019-03-22T15:02:44.174Z,18.41
2019-03-22T15:05:13.205Z,18.56
2019-03-22T15:07:42.105Z,18.18
2019-03-22T15:10:11.531Z,18.30
2019-03-22T15:12:40.524Z,18.25
2019-03-22T15:15:47.774Z,18.34
2019-03-22T15:18:36.219Z,18.28
2019-03-22T15:21:24.667Z,18.31
2019-03-22T15:24:13.448Z,18.36
2019-03-22T15:26:55.836Z,18.26
2019-03-22T15:29:47.332Z,18.14
2019-03-22T15:32:34.526Z,18.19
2019-03-22T15:38:13.302Z,18.17
2019-03-22T15:40:42.763Z,17.84
2019-03-22T15:43:11.681Z,17.94
2019-03-22T15:45:40.901Z,17.87
2019-03-22T15:48:10.111Z,17.85
2019-03-22T15:50:41.020Z,17.81
2019-03-22T15:53:09.966Z,17.75
2019-03-22T15:55:38.851Z,17.74
2019-03-22T15:58:08.002Z,17.78
2019-03-22T16:00:37.382Z,17.74
2019-03-22T16:03:06.279Z,17.64
2019-03-22T16:05:35.212Z,17.62
2019-03-22T16:08:04.148Z,17.64
2019-03-22T16:10:33.116Z,17.68
2019-03-22T16:13:02.222Z,17.63
2019-03-22T16:15:31.158Z,17.59
2019-03-22T16:18:00.051Z,17.56
2019-03-22T16:20:28.969Z,17.43
2019-03-22T16:22:57.834Z,17.44
2019-03-22T16:25:26.891Z,17.46
2019-03-22T16:27:56.058Z,17.34
2019-03-22T16:30:24.978Z,17.33
2019-03-22T16:32:53.847Z,17.29
2019-03-22T16:35:22.793Z,17.39
2019-03-22T16:37:51.727Z,17.21
2019-03-22T16:40:24.390Z,17.20
2019-03-22T16:42:51.527Z,17.16
2019-03-22T16:45:38.733Z,17.00
2019-03-22T16:48:07.774Z,16.99
2019-03-22T16:50:36.663Z,16.87
2019-03-22T16:53:05.747Z,16.69
2019-03-22T16:55:34.637Z,16.64
2019-03-22T16:58:04.612Z,16.65
2019-03-22T17:00:33.596Z,16.55
2019-03-22T17:03:02.792Z,16.39
2019-03-22T17:05:32.153Z,16.42
2019-03-22T17:08:01.289Z,16.37
2019-03-22T17:10:30.307Z,16.27
2019-03-22T17:12:59.328Z,16.32
2019-03-22T17:15:28.299Z,16.16
2019-03-22T17:17:57.218Z,16.10
2019-03-22T17:20:26.637Z,16.03
2019-03-22T17:22:55.869Z,15.89
2019-03-22T17:25:24.775Z,15.83
2019-03-22T17:27:53.920Z,15.75
2019-03-22T17:30:22.816Z,15.65
2019-03-22T17:32:51.753Z,15.60
2019-03-22T17:35:20.866Z,15.43
2019-03-22T17:37:49.860Z,15.34
2019-03-22T17:40:18.756Z,15.24
2019-03-22T17:42:47.660Z,15.12
2019-03-22T17:45:17.595Z,14.98
2019-03-22T17:47:46.626Z,14.91
2019-03-22T17:50:16.091Z,14.84
2019-03-22T17:52:45.043Z,14.74
2019-03-22T17:55:14.559Z,14.73
2019-03-22T17:57:43.498Z,14.61
2019-03-22T18:00:14.241Z,14.54
2019-03-22T18:02:43.760Z,14.43
2019-03-22T18:05:12.796Z,14.35
2019-03-22T18:07:41.658Z,14.37
2019-03-22T18:10:11.188Z,14.28
2019-03-22T18:12:40.142Z,14.23
2019-03-22T18:15:10.249Z,14.20
2019-03-22T18:17:39.198Z,14.14
2019-03-22T18:20:09.565Z,14.11
2019-03-22T18:22:39.445Z,14.15
2019-03-22T18:25:09.422Z,14.12
2019-03-22T18:27:38.398Z,14.06
2019-03-22T18:30:08.502Z,13.99
2019-03-22T18:32:38.219Z,13.91
2019-03-22T18:35:07.302Z,13.85
2019-03-22T18:37:36.210Z,13.77
2019-03-22T18:40:06.200Z,13.72
2019-03-22T18:42:35.255Z,13.65
2019-03-22T18:45:07.434Z,13.62
2019-03-22T18:47:37.188Z,13.57
2019-03-22T18:50:06.925Z,13.44
2019-03-22T18:52:35.981Z,13.40
2019-03-22T18:55:05.516Z,13.28
2019-03-22T18:57:34.421Z,13.19
2019-03-22T19:00:05.109Z,13.15
2019-03-22T19:02:34.122Z,13.07
2019-03-22T19:05:03.500Z,13.01
2019-03-22T19:07:32.424Z,12.97
2019-03-22T19:10:01.430Z,12.92
2019-03-22T19:12:30.692Z,12.88
2019-03-22T19:14:59.597Z,12.81
2019-03-22T19:17:28.542Z,12.80
2019-03-22T19:19:57.590Z,12.74
2019-03-22T19:22:27.270Z,12.57
2019-03-22T19:24:56.298Z,12.46
2019-03-22T19:27:25.222Z,12.37
2019-03-22T19:29:54.920Z,12.31
2019-03-22T19:32:23.833Z,12.30
2019-03-22T19:34:54.597Z,12.26
2019-03-22T19:37:23.697Z,12.22
2019-03-22T19:39:52.745Z,12.20
2019-03-22T19:42:21.645Z,12.16
2019-03-22T19:44:50.844Z,12.09
2019-03-22T19:47:19.728Z,12.02
2019-03-22T19:49:48.826Z,11.99
2019-03-22T19:52:17.855Z,11.93
2019-03-22T19:54:46.806Z,11.88
2019-03-22T19:57:15.769Z,11.84
2019-03-22T19:59:45.370Z,11.83
2019-03-22T20:02:14.442Z,11.80
2019-03-22T20:04:43.341Z,11.74
2019-03-22T20:07:12.527Z,11.68
2019-03-22T20:09:41.449Z,11.63
2019-03-22T20:12:10.322Z,11.56
2019-03-22T20:14:40.897Z,11.51
2019-03-22T20:17:09.930Z,11.47
2019-03-22T20:19:38.840Z,11.40
2019-03-22T20:22:07.807Z,11.37
2019-03-22T20:24:36.982Z,11.33
2019-03-22T20:27:05.943Z,11.26
2019-03-22T20:29:35.387Z,11.21
2019-03-22T20:32:04.407Z,11.22
2019-03-22T20:34:33.442Z,11.31
2019-03-22T20:37:03.348Z,11.30
2019-03-22T20:39:32.369Z,11.26
2019-03-22T20:42:01.392Z,11.23
2019-03-22T20:44:34.026Z,11.21
2019-03-22T20:47:01.367Z,11.18
2019-03-22T20:49:30.319Z,11.12
2019-03-22T20:51:59.220Z,11.06
2019-03-22T20:54:28.263Z,11.00
2019-03-22T20:56:57.168Z,10.90
2019-03-22T20:59:26.781Z,10.85
2019-03-22T21:01:56.049Z,10.84
2019-03-22T21:04:24.992Z,10.89
2019-03-22T21:06:53.974Z,10.82
2019-03-22T21:09:23.043Z,10.81
2019-03-22T21:11:52.078Z,10.71
2019-03-22T21:14:21.331Z,10.68
2019-03-22T21:16:50.389Z,10.66
2019-03-22T21:19:19.403Z,10.62
2019-03-22T21:21:48.284Z,10.59
2019-03-22T21:24:17.279Z,10.58
2019-03-22T21:26:46.494Z,10.57
2019-03-22T21:29:15.487Z,10.55
2019-03-22T21:31:44.369Z,10.51
2019-03-22T21:34:13.372Z,10.51
2019-03-22T21:36:42.291Z,10.45
2019-03-22T21:39:11.171Z,10.47
2019-03-22T21:41:40.140Z,10.43
2019-03-22T21:44:09.056Z,10.43
2019-03-22T21:46:37.980Z,10.38
2019-03-22T21:49:06.850Z,10.36
2019-03-22T21:51:35.807Z,10.33
2019-03-22T21:54:04.874Z,10.31
2019-03-22T21:56:33.803Z,10.30
2019-03-22T21:59:02.712Z,10.28
2019-03-22T22:01:31.825Z,10.23
2019-03-22T22:04:00.851Z,10.21
2019-03-22T22:06:29.821Z,10.15
2019-03-22T22:08:59.033Z,10.11
2019-03-22T22:11:27.942Z,10.06
2019-03-22T22:13:56.947Z,10.03
2019-03-22T22:16:25.976Z,10.00
2019-03-22T22:18:54.897Z,9.98
2019-03-22T22:21:24.118Z,9.95
2019-03-22T22:23:53.038Z,9.92
2019-03-22T22:26:22.045Z,9.88
2019-03-22T22:28:50.946Z,9.88
2019-03-22T22:31:20.000Z,9.86
2019-03-22T22:33:48.992Z,9.83
2019-03-22T22:36:18.031Z,9.81
2019-03-22T22:38:46.912Z,9.77
2019-03-22T22:41:15.844Z,9.73
2019-03-22T22:43:44.958Z,9.72
2019-03-22T22:46:14.141Z,9.67
2019-03-22T22:48:43.066Z,9.60
2019-03-22T22:51:12.060Z,9.56
2019-03-22T22:53:41.097Z,9.58
2019-03-22T22:56:10.038Z,9.52
2019-03-22T22:58:39.156Z,9.48
2019-03-22T23:01:08.229Z,9.42
2019-03-22T23:03:37.091Z,9.35
2019-03-22T23:06:09.750Z,9.33
2019-03-22T23:08:36.982Z,9.30
2019-03-22T23:11:05.986Z,9.25
2019-03-22T23:13:34.983Z,9.21
2019-03-22T23:16:03.927Z,9.14
2019-03-22T23:18:32.885Z,9.13
2019-03-22T23:21:02.349Z,9.23
2019-03-22T23:23:34.590Z,9.12
2019-03-22T23:26:04.369Z,9.09
2019-03-22T23:28:33.301Z,9.05
2019-03-22T23:31:02.290Z,8.94
2019-03-22T23:33:31.303Z,8.93
2019-03-22T23:36:00.305Z,8.89
2019-03-22T23:38:29.253Z,8.87
2019-03-22T23:40:58.218Z,8.90
2019-03-22T23:43:27.178Z,8.79
2019-03-22T23:45:56.102Z,8.97
2019-03-22T23:48:25.117Z,9.00
2019-03-22T23:50:53.969Z,9.05
2019-03-22T23:53:22.865Z,9.03
2019-03-22T23:55:53.330Z,8.89
2019-03-22T23:58:22.308Z,8.57
